Weather at Daytona Beach International Airport

Public forecast

Using degrees Fahrenheit for public forecast. Weather courtesy of forecast.io.

Current aviation weather report (METAR) for Daytona Beach International Airport

2024/05/29 13:53 (retrieved 1 hour ago)

KDAB 291353Z 29004KT 10SM FEW250 30/22 A3004 RMK AO2 SLP173 T03000217

Aviation forecast (TAF) for Daytona Beach International Airport

2024/05/29 12:31 (retrieved 2 hours ago)

TAF KDAB 291128Z 2912/3012 29005KT P6SM FEW003 FEW040 FEW200 FM291500 35009KT P6SM FEW050 SCT250 FM291900 03012KT P6SM SCT180 FM292200 05008KT P6SM FEW150 FM300200 VRB02KT P6SM FEW250